createdAt,value
2023-01-10T00:01:10.415Z,7.40
2023-01-10T00:03:59.735Z,7.30
2023-01-10T00:06:49.044Z,7.20
2023-01-10T00:09:38.296Z,7.40
2023-01-10T00:12:45.005Z,7.30
2023-01-10T00:15:34.405Z,7.20
2023-01-10T00:18:25.358Z,7.20
2023-01-10T00:21:15.511Z,7.30
2023-01-10T00:24:17.398Z,7.40
2023-01-10T00:27:07.165Z,7.50
2023-01-10T00:29:58.170Z,7.40
2023-01-10T00:32:48.148Z,7.20
2023-01-10T00:35:39.032Z,7.00
2023-01-10T00:38:28.793Z,7.10
2023-01-10T00:41:31.403Z,7.30
2023-01-10T00:44:20.483Z,7.50
2023-01-10T00:47:10.330Z,7.60
2023-01-10T00:49:59.774Z,7.70
2023-01-10T00:52:50.381Z,7.70
2023-01-10T00:55:39.888Z,7.70
2023-01-10T00:58:29.528Z,7.90
2023-01-10T01:01:19.139Z,7.80
2023-01-10T01:04:09.231Z,7.70
2023-01-10T01:07:00.051Z,7.60
2023-01-10T01:10:08.325Z,7.70
2023-01-10T01:12:58.554Z,7.70
2023-01-10T01:15:48.008Z,7.60
2023-01-10T01:18:37.380Z,7.30
2023-01-10T01:21:28.620Z,6.90
2023-01-10T01:24:17.844Z,6.70
2023-01-10T01:27:08.620Z,6.70
2023-01-10T01:29:57.892Z,6.90
2023-01-10T01:32:47.413Z,7.00
2023-01-10T01:35:37.018Z,6.90
2023-01-10T01:38:26.044Z,6.70
2023-01-10T01:41:28.888Z,6.70
2023-01-10T01:44:20.947Z,6.80
2023-01-10T01:47:21.012Z,7.30
2023-01-10T01:50:16.549Z,7.00
2023-01-10T01:53:11.112Z,7.10
2023-01-10T01:56:03.759Z,7.10
2023-01-10T01:58:56.119Z,7.00
2023-01-10T02:01:50.871Z,7.10
2023-01-10T02:04:47.082Z,7.20
2023-01-10T02:07:38.785Z,7.30
2023-01-10T02:10:34.270Z,7.30
2023-01-10T02:13:27.481Z,7.30
2023-01-10T02:16:17.212Z,7.20
2023-01-10T02:19:15.253Z,7.20
2023-01-10T02:22:48.976Z,7.20
2023-01-10T02:26:13.733Z,7.00
2023-01-10T02:29:35.934Z,7.00
2023-01-10T02:32:47.729Z,7.10
2023-01-10T02:35:59.826Z,7.10
2023-01-10T02:41:49.734Z,6.40
2023-01-10T02:44:47.329Z,6.50
2023-01-10T02:47:41.728Z,6.30
2023-01-10T02:50:42.385Z,6.50
2023-01-10T02:53:35.958Z,6.70
2023-01-10T02:56:51.607Z,6.60
2023-01-10T03:00:10.238Z,6.60
2023-01-10T03:03:10.424Z,6.70
2023-01-10T03:06:10.950Z,6.40
2023-01-10T03:09:08.643Z,5.50
2023-01-10T03:12:06.488Z,5.70
2023-01-10T03:14:57.858Z,6.10
2023-01-10T03:17:51.736Z,6.40
2023-01-10T03:20:47.223Z,6.60
2023-01-10T03:23:37.831Z,6.60
2023-01-10T03:26:35.532Z,6.60
2023-01-10T03:29:30.783Z,6.70
2023-01-10T03:32:24.828Z,6.80
2023-01-10T03:35:16.327Z,6.90
2023-01-10T03:38:10.722Z,6.90
2023-01-10T03:41:05.784Z,6.80
2023-01-10T03:44:17.737Z,6.50
2023-01-10T03:47:11.073Z,6.30
2023-01-10T03:50:04.820Z,6.40
2023-01-10T03:52:54.838Z,6.40
2023-01-10T03:55:46.728Z,6.40
2023-01-10T03:58:36.759Z,6.10
2023-01-10T04:01:26.006Z,6.00
2023-01-10T04:04:17.176Z,6.10
2023-01-10T04:07:07.085Z,6.10
2023-01-10T04:09:56.317Z,5.60
2023-01-10T04:12:46.642Z,5.40
2023-01-10T04:15:36.059Z,5.20
2023-01-10T04:18:25.525Z,5.30
2023-01-10T04:21:14.802Z,5.60
2023-01-10T04:24:04.604Z,5.90
2023-01-10T04:26:53.924Z,6.10
2023-01-10T04:29:46.437Z,6.30
2023-01-10T04:32:35.617Z,6.50
2023-01-10T04:35:25.129Z,6.70
2023-01-10T04:38:14.458Z,6.80
2023-01-10T04:41:03.593Z,6.80
2023-01-10T04:43:52.727Z,6.80
2023-01-10T04:46:43.347Z,7.00
2023-01-10T04:49:32.659Z,7.10
2023-01-10T04:52:21.824Z,7.20
2023-01-10T04:58:03.325Z,7.40
2023-01-10T05:00:53.848Z,7.40
2023-01-10T05:03:45.233Z,7.60
2023-01-10T05:06:35.706Z,7.80
2023-01-10T05:09:24.809Z,7.90
2023-01-10T05:12:14.151Z,7.90
2023-01-10T05:15:03.461Z,7.90
2023-01-10T05:17:58.647Z,8.00
2023-01-10T05:20:49.862Z,8.10
2023-01-10T05:23:39.218Z,8.20
2023-01-10T05:26:27.958Z,8.40
2023-01-10T05:29:17.752Z,8.40
2023-01-10T05:32:07.270Z,8.50
2023-01-10T05:34:56.392Z,8.60
2023-01-10T05:37:46.798Z,8.70
2023-01-10T05:40:36.261Z,8.70
2023-01-10T05:43:26.236Z,8.80
2023-01-10T05:46:15.693Z,8.90
2023-01-10T05:49:05.359Z,8.90
2023-01-10T05:51:54.730Z,9.00
2023-01-10T05:54:45.440Z,9.10
2023-01-10T05:57:34.530Z,9.20
2023-01-10T06:00:25.701Z,9.20
2023-01-10T06:03:15.214Z,9.20
2023-01-10T06:06:04.758Z,9.30
2023-01-10T06:08:56.448Z,9.40
2023-01-10T06:11:47.084Z,9.40
2023-01-10T06:14:36.238Z,9.50
2023-01-10T06:17:26.055Z,9.50
2023-01-10T06:20:15.276Z,9.50
2023-01-10T06:23:04.885Z,9.60
2023-01-10T06:25:53.794Z,9.60
2023-01-10T06:28:44.829Z,9.60
2023-01-10T06:31:34.584Z,9.70
2023-01-10T06:34:23.757Z,9.70
2023-01-10T06:37:13.009Z,9.70
2023-01-10T06:40:02.446Z,9.70
2023-01-10T06:42:52.074Z,9.70
2023-01-10T06:45:42.470Z,9.80
2023-01-10T06:48:31.926Z,9.80
2023-01-10T06:51:21.335Z,9.70
2023-01-10T06:54:10.457Z,9.70
2023-01-10T06:56:59.992Z,9.80
2023-01-10T06:59:48.998Z,9.80
2023-01-10T07:02:40.097Z,9.80
2023-01-10T07:05:29.779Z,9.80
2023-01-10T07:08:19.290Z,9.80
2023-01-10T07:11:08.417Z,9.80
2023-01-10T07:13:58.152Z,9.90
2023-01-10T07:16:47.850Z,9.90
2023-01-10T07:19:39.074Z,10.00
2023-01-10T07:22:27.734Z,10.00
2023-01-10T07:25:17.514Z,10.10
2023-01-10T07:28:07.749Z,10.00
2023-01-10T07:30:59.383Z,10.00
2023-01-10T07:33:49.366Z,10.10
2023-01-10T07:36:39.847Z,10.10
2023-01-10T07:39:29.214Z,10.10
2023-01-10T07:42:18.828Z,10.20
2023-01-10T07:45:09.444Z,10.40
2023-01-10T07:47:59.159Z,10.40
2023-01-10T07:50:47.974Z,10.60
2023-01-10T07:53:40.137Z,10.60
2023-01-10T07:56:29.676Z,10.80
2023-01-10T07:59:20.981Z,11.00
2023-01-10T08:02:12.674Z,11.10
2023-01-10T08:05:03.207Z,11.20
2023-01-10T08:07:52.556Z,11.30
2023-01-10T08:10:43.334Z,11.40
2023-01-10T08:13:32.441Z,11.50
2023-01-10T08:16:21.713Z,11.70
2023-01-10T08:19:12.808Z,11.70
2023-01-10T08:22:03.449Z,11.80
2023-01-10T08:24:53.123Z,11.90
2023-01-10T08:27:43.780Z,12.00
2023-01-10T08:30:34.548Z,12.10
2023-01-10T08:33:24.201Z,12.20
2023-01-10T08:36:20.944Z,12.20
2023-01-10T08:39:10.658Z,12.10
2023-01-10T08:41:59.686Z,12.20
2023-01-10T08:44:50.655Z,12.30
2023-01-10T08:47:40.601Z,12.40
2023-01-10T08:50:30.425Z,12.50
2023-01-10T08:53:19.469Z,12.70
2023-01-10T08:56:09.713Z,12.80
2023-01-10T08:58:59.106Z,12.90
2023-01-10T09:01:49.759Z,13.00
2023-01-10T09:04:38.988Z,13.00
2023-01-10T09:07:28.196Z,12.90
2023-01-10T09:10:17.718Z,13.00
2023-01-10T09:13:07.364Z,13.10
2023-01-10T09:15:57.056Z,13.10
2023-01-10T09:18:48.608Z,13.10
2023-01-10T09:21:37.618Z,13.00
2023-01-10T09:24:29.352Z,13.10
2023-01-10T09:27:18.542Z,13.10
2023-01-10T09:30:08.458Z,13.20
2023-01-10T09:32:59.238Z,13.20
2023-01-10T09:35:51.771Z,13.30
2023-01-10T09:38:40.887Z,13.30
2023-01-10T09:41:51.617Z,13.40
2023-01-10T09:44:48.439Z,13.50
2023-01-10T09:47:45.245Z,13.60
2023-01-10T09:50:45.616Z,13.70
2023-01-10T09:53:39.560Z,13.70
2023-01-10T09:56:30.913Z,13.80
2023-01-10T09:59:37.363Z,14.00
2023-01-10T10:02:32.358Z,14.00
2023-01-10T10:05:24.855Z,14.20
2023-01-10T10:08:19.148Z,14.20
2023-01-10T10:11:32.123Z,14.30
2023-01-10T10:14:31.503Z,14.40
2023-01-10T10:17:31.865Z,14.40
2023-01-10T10:20:37.565Z,14.50
2023-01-10T10:23:53.822Z,14.60
2023-01-10T10:26:52.942Z,14.70
2023-01-10T10:30:18.796Z,14.80
2023-01-10T10:33:21.098Z,14.90
2023-01-10T10:36:17.066Z,15.00
2023-01-10T10:39:08.175Z,15.10
2023-01-10T10:42:00.218Z,15.30
2023-01-10T10:44:54.726Z,15.40
2023-01-10T10:47:50.199Z,15.50
2023-01-10T10:50:50.187Z,15.60
2023-01-10T10:53:39.801Z,15.50
2023-01-10T10:56:29.102Z,15.50
2023-01-10T10:59:22.286Z,15.40
2023-01-10T11:02:24.968Z,15.40
2023-01-10T11:05:19.442Z,15.50
2023-01-10T11:08:11.594Z,15.60
2023-01-10T11:11:04.852Z,15.60
2023-01-10T11:13:56.773Z,15.70
2023-01-10T11:16:48.115Z,15.80
2023-01-10T11:19:37.632Z,16.00
2023-01-10T11:22:27.520Z,16.00
2023-01-10T11:25:19.083Z,16.20
2023-01-10T11:28:15.331Z,16.30
2023-01-10T11:31:05.188Z,16.50
2023-01-10T11:33:56.851Z,16.50
2023-01-10T11:36:55.968Z,16.30
2023-01-10T11:39:45.462Z,16.00
2023-01-10T11:42:34.998Z,16.10
2023-01-10T11:45:31.845Z,16.20
2023-01-10T11:48:47.836Z,16.20
2023-01-10T11:51:38.200Z,16.40
2023-01-10T11:54:30.514Z,16.50
2023-01-10T11:57:23.762Z,16.40
2023-01-10T12:00:14.911Z,16.40
2023-01-10T12:03:04.698Z,16.70
2023-01-10T12:05:56.327Z,17.00
2023-01-10T12:08:47.252Z,17.10
2023-01-10T12:11:36.498Z,17.20
2023-01-10T12:14:29.251Z,16.90
2023-01-10T12:17:24.979Z,17.10
2023-01-10T12:20:16.328Z,17.30
2023-01-10T12:23:09.441Z,17.60
2023-01-10T12:26:11.503Z,17.60
2023-01-10T12:29:08.726Z,17.60
2023-01-10T12:31:59.767Z,17.60
2023-01-10T12:34:55.192Z,17.70
2023-01-10T12:37:50.406Z,17.80
2023-01-10T12:40:46.397Z,18.10
2023-01-10T12:43:59.016Z,18.20
2023-01-10T12:47:06.569Z,18.30
2023-01-10T12:50:00.459Z,18.30
2023-01-10T12:52:56.550Z,18.00
2023-01-10T12:55:47.553Z,17.50
2023-01-10T12:58:44.252Z,17.40
2023-01-10T13:01:36.450Z,17.50
2023-01-10T13:04:27.790Z,17.80
2023-01-10T13:07:18.100Z,17.70
2023-01-10T13:10:09.701Z,17.40
2023-01-10T13:13:03.146Z,17.40
2023-01-10T13:16:00.286Z,17.20
2023-01-10T13:19:04.359Z,17.20
2023-01-10T13:22:23.010Z,17.40
2023-01-10T13:25:21.602Z,17.00
2023-01-10T13:28:20.950Z,16.70
2023-01-10T13:31:25.580Z,16.90
2023-01-10T13:34:16.990Z,16.60
2023-01-10T13:37:15.604Z,16.70
2023-01-10T13:40:08.004Z,16.80
2023-01-10T13:43:39.684Z,16.70
2023-01-10T13:46:51.687Z,16.40
2023-01-10T13:49:45.845Z,16.20
2023-01-10T13:52:35.370Z,16.20
2023-01-10T13:55:53.875Z,16.10
2023-01-10T13:59:01.926Z,16.10
2023-01-10T14:02:12.023Z,15.90
2023-01-10T14:07:55.716Z,15.60
2023-01-10T14:10:47.729Z,15.30
2023-01-10T14:13:37.297Z,15.20
2023-01-10T14:16:31.967Z,15.00
2023-01-10T14:19:27.678Z,14.80
2023-01-10T14:22:29.503Z,14.80
2023-01-10T14:25:23.100Z,14.80
2023-01-10T14:28:24.429Z,14.80
2023-01-10T14:31:21.927Z,14.80
2023-01-10T14:34:14.902Z,14.70
2023-01-10T14:37:08.044Z,14.60
2023-01-10T14:39:57.428Z,14.50
2023-01-10T14:42:51.980Z,14.50
2023-01-10T14:45:49.491Z,14.50
2023-01-10T14:48:43.601Z,14.30
2023-01-10T14:51:33.915Z,14.40
2023-01-10T14:54:23.971Z,14.40
2023-01-10T14:57:21.235Z,14.40
2023-01-10T15:00:17.900Z,14.40
2023-01-10T15:03:17.381Z,14.30
2023-01-10T15:06:06.878Z,14.20
2023-01-10T15:09:01.050Z,14.10
2023-01-10T15:11:52.586Z,14.10
2023-01-10T15:14:41.954Z,14.00
2023-01-10T15:17:32.774Z,14.00
2023-01-10T15:20:24.569Z,14.00
2023-01-10T15:23:16.750Z,14.00
2023-01-10T15:26:09.610Z,13.90
2023-01-10T15:55:40.259Z,13.50
2023-01-10T15:58:31.361Z,13.50
2023-01-10T16:01:20.638Z,13.30
2023-01-10T16:04:16.252Z,13.20
2023-01-10T16:07:14.826Z,13.00
2023-01-10T16:10:06.633Z,13.00
2023-01-10T16:13:28.689Z,12.90
2023-01-10T16:16:20.761Z,12.80
2023-01-10T16:19:10.179Z,12.70
2023-01-10T16:22:01.248Z,12.60
2023-01-10T16:24:52.788Z,12.50
2023-01-10T16:27:42.023Z,12.40
2023-01-10T16:30:34.411Z,12.40
2023-01-10T16:33:26.843Z,12.40
2023-01-10T16:36:18.143Z,12.30
2023-01-10T16:39:12.357Z,12.30
2023-01-10T16:42:18.808Z,12.20
2023-01-10T16:45:09.267Z,12.10
2023-01-10T16:47:59.850Z,12.20
2023-01-10T16:50:49.855Z,12.50
2023-01-10T16:53:38.930Z,12.10
2023-01-10T16:56:30.689Z,12.10
2023-01-10T16:59:20.558Z,12.00
2023-01-10T17:02:17.955Z,12.00
2023-01-10T17:05:10.073Z,12.00
2023-01-10T17:07:59.690Z,12.00
2023-01-10T17:10:54.117Z,11.90
2023-01-10T17:13:46.020Z,11.80
2023-01-10T17:16:36.452Z,11.70
2023-01-10T17:19:27.100Z,11.70
2023-01-10T17:22:17.917Z,11.70
2023-01-10T17:25:07.978Z,11.70
2023-01-10T17:27:57.323Z,11.60
2023-01-10T17:30:46.705Z,11.60
2023-01-10T17:33:35.932Z,11.50
2023-01-10T17:36:29.401Z,11.60
2023-01-10T17:39:19.934Z,11.50
2023-01-10T17:42:09.743Z,11.50
2023-01-10T17:44:58.975Z,11.40
2023-01-10T17:47:48.821Z,11.40
2023-01-10T17:50:38.143Z,11.30
2023-01-10T17:53:28.239Z,11.30
2023-01-10T17:56:21.903Z,11.30
2023-01-10T17:59:10.996Z,11.30
2023-01-10T18:02:00.898Z,11.30
2023-01-10T18:04:51.868Z,11.30
2023-01-10T18:07:41.552Z,11.20
2023-01-10T18:10:31.159Z,11.00
2023-01-10T18:13:22.033Z,11.00
2023-01-10T18:16:11.152Z,11.10
2023-01-10T18:19:01.433Z,11.10
2023-01-10T18:21:50.657Z,11.20
2023-01-10T18:24:40.781Z,11.10
2023-01-10T18:27:30.277Z,11.00
2023-01-10T18:30:22.859Z,10.90
2023-01-10T18:33:12.063Z,11.10
2023-01-10T18:36:04.713Z,11.20
2023-01-10T18:38:54.412Z,11.20
2023-01-10T18:41:43.559Z,11.20
2023-01-10T18:44:32.890Z,11.10
2023-01-10T18:47:23.814Z,11.10
2023-01-10T18:50:13.538Z,10.90
2023-01-10T18:53:03.075Z,10.70
2023-01-10T18:55:55.728Z,10.50
2023-01-10T18:58:45.094Z,11.30
2023-01-10T19:01:35.220Z,10.60
2023-01-10T19:04:26.338Z,10.50
2023-01-10T19:07:15.721Z,10.50
2023-01-10T19:10:05.844Z,10.40
2023-01-10T19:12:54.975Z,10.40
2023-01-10T19:15:44.637Z,10.40
2023-01-10T19:18:34.229Z,10.40
2023-01-10T19:21:25.810Z,10.20
2023-01-10T19:24:23.135Z,10.30
2023-01-10T19:27:12.322Z,10.20
2023-01-10T19:30:01.910Z,10.30
2023-01-10T19:32:51.869Z,10.20
2023-01-10T19:35:43.141Z,10.10
2023-01-10T19:38:33.634Z,10.20
2023-01-10T19:41:23.262Z,10.10
2023-01-10T19:44:15.534Z,10.10
2023-01-10T19:47:05.265Z,10.00
2023-01-10T19:49:54.149Z,9.90
2023-01-10T19:52:43.863Z,9.70
2023-01-10T19:55:34.615Z,9.80
2023-01-10T19:58:24.238Z,9.60
2023-01-10T20:01:15.383Z,9.50
2023-01-10T20:04:06.672Z,9.50
2023-01-10T20:06:57.667Z,9.50
2023-01-10T20:09:46.591Z,9.50
2023-01-10T20:12:37.295Z,9.40
2023-01-10T20:15:26.628Z,9.40
2023-01-10T20:18:16.041Z,9.40
2023-01-10T20:21:06.815Z,9.40
2023-01-10T20:23:56.517Z,9.30
2023-01-10T20:26:46.505Z,9.20
2023-01-10T20:29:37.145Z,9.00
2023-01-10T20:32:26.912Z,9.00
2023-01-10T20:35:16.189Z,9.10
2023-01-10T20:38:07.411Z,9.20
2023-01-10T20:40:59.205Z,9.30
2023-01-10T20:43:48.751Z,9.30
2023-01-10T20:46:39.435Z,9.30
2023-01-10T20:49:30.661Z,9.20
2023-01-10T20:52:20.093Z,9.20
2023-01-10T20:55:11.146Z,9.20
2023-01-10T20:58:00.378Z,9.20
2023-01-10T21:00:49.790Z,9.10
2023-01-10T21:03:41.461Z,9.10
2023-01-10T21:06:31.015Z,9.00
2023-01-10T21:09:20.644Z,8.90
2023-01-10T21:12:23.243Z,8.90
2023-01-10T21:15:14.873Z,8.90
2023-01-10T21:18:04.098Z,8.80
2023-01-10T21:20:57.251Z,8.70
2023-01-10T21:23:46.335Z,8.70
2023-01-10T21:26:35.244Z,8.80
2023-01-10T21:29:24.826Z,8.70
2023-01-10T21:32:14.405Z,8.70
2023-01-10T21:35:03.492Z,8.70
2023-01-10T21:40:46.897Z,8.80
2023-01-10T21:43:36.418Z,8.60
2023-01-10T21:46:26.457Z,8.60
2023-01-10T21:49:15.924Z,8.60
2023-01-10T21:52:05.900Z,8.50
2023-01-10T21:54:56.829Z,8.40
2023-01-10T21:57:45.892Z,8.30
2023-01-10T22:00:35.170Z,8.30
2023-01-10T22:03:25.038Z,8.40
2023-01-10T22:06:14.453Z,8.40
2023-01-10T22:09:04.336Z,8.40
2023-01-10T22:11:55.581Z,8.50
2023-01-10T22:14:44.915Z,8.60
2023-01-10T22:17:34.101Z,8.00
2023-01-10T22:20:23.220Z,7.80
2023-01-10T22:23:12.477Z,8.10
2023-01-10T22:26:03.238Z,8.20
2023-01-10T22:28:54.201Z,8.00
2023-01-10T22:31:44.010Z,8.10
2023-01-10T22:34:33.302Z,8.00
2023-01-10T22:37:24.682Z,7.90
2023-01-10T22:45:56.269Z,7.90
2023-01-10T22:54:28.312Z,7.90
2023-01-10T22:57:17.965Z,7.70
2023-01-10T23:00:08.301Z,7.80
2023-01-10T23:02:58.740Z,7.80
2023-01-10T23:05:47.523Z,7.60
2023-01-10T23:08:36.972Z,7.50
2023-01-10T23:11:26.398Z,7.70
2023-01-10T23:14:15.703Z,7.80
2023-01-10T23:17:04.913Z,7.80
2023-01-10T23:19:56.290Z,7.80
2023-01-10T23:22:45.323Z,7.70
2023-01-10T23:25:35.436Z,7.50
2023-01-10T23:28:24.411Z,7.60
2023-01-10T23:31:13.813Z,7.60
2023-01-10T23:34:03.741Z,7.50
2023-01-10T23:36:54.493Z,7.40
2023-01-10T23:39:43.740Z,7.60
2023-01-10T23:42:32.944Z,7.80
2023-01-10T23:48:12.593Z,8.10
2023-01-10T23:51:01.951Z,8.00
2023-01-10T23:53:52.747Z,8.10
2023-01-10T23:56:41.873Z,8.30
2023-01-10T23:59:30.842Z,8.30
